sensor_id;sensor_type;location;lat;lon;timestamp;P1;durP1;ratioP1;P2;durP2;ratioP2
67776;SDS011;54576;52.020;5.536;2023-09-30T07:18:03;41.88;;;17.70;;
67776;SDS011;54576;52.020;5.536;2023-09-30T07:20:30;38.72;;;18.48;;
67776;SDS011;54576;52.020;5.536;2023-09-30T07:22:58;37.70;;;17.95;;
67776;SDS011;54576;52.020;5.536;2023-09-30T07:25:24;35.85;;;17.42;;
67776;SDS011;54576;52.020;5.536;2023-09-30T07:27:50;31.05;;;16.75;;
67776;SDS011;54576;52.020;5.536;2023-09-30T07:30:17;33.20;;;15.88;;
67776;SDS011;54576;52.020;5.536;2023-09-30T07:32:44;33.47;;;15.68;;
67776;SDS011;54576;52.020;5.536;2023-09-30T07:35:10;27.38;;;14.20;;
67776;SDS011;54576;52.020;5.536;2023-09-30T07:37:37;40.13;;;15.40;;
67776;SDS011;54576;52.020;5.536;2023-09-30T07:40:03;32.30;;;16.23;;
67776;SDS011;54576;52.020;5.536;2023-09-30T07:42:33;28.33;;;14.57;;
67776;SDS011;54576;52.020;5.536;2023-09-30T07:45:01;27.52;;;15.60;;
67776;SDS011;54576;52.020;5.536;2023-09-30T07:47:29;34.60;;;14.25;;
67776;SDS011;54576;52.020;5.536;2023-09-30T07:49:56;26.85;;;14.15;;
67776;SDS011;54576;52.020;5.536;2023-09-30T07:52:22;33.47;;;13.40;;
67776;SDS011;54576;52.020;5.536;2023-09-30T07:54:48;30.45;;;13.98;;
67776;SDS011;54576;52.020;5.536;2023-09-30T07:57:14;27.88;;;14.52;;
67776;SDS011;54576;52.020;5.536;2023-09-30T07:59:40;36.72;;;14.13;;
67776;SDS011;54576;52.020;5.536;2023-09-30T08:02:06;25.88;;;14.63;;
67776;SDS011;54576;52.020;5.536;2023-09-30T08:04:38;25.13;;;14.02;;
67776;SDS011;54576;52.020;5.536;2023-09-30T08:07:04;28.20;;;14.18;;
67776;SDS011;54576;52.020;5.536;2023-09-30T08:12:34;31.83;;;13.68;;
67776;SDS011;54576;52.020;5.536;2023-09-30T08:15:00;23.33;;;12.88;;
67776;SDS011;54576;52.020;5.536;2023-09-30T08:17:28;26.58;;;13.80;;
67776;SDS011;54576;52.020;5.536;2023-09-30T08:19:54;32.58;;;12.55;;
67776;SDS011;54576;52.020;5.536;2023-09-30T08:22:20;30.02;;;12.30;;
67776;SDS011;54576;52.020;5.536;2023-09-30T08:24:50;30.02;;;13.98;;
67776;SDS011;54576;52.020;5.536;2023-09-30T08:27:16;28.00;;;14.10;;
67776;SDS011;54576;52.020;5.536;2023-09-30T08:29:42;23.75;;;12.73;;
67776;SDS011;54576;52.020;5.536;2023-09-30T08:32:09;31.02;;;12.48;;
67776;SDS011;54576;52.020;5.536;2023-09-30T08:34:35;22.40;;;12.00;;
67776;SDS011;54576;52.020;5.536;2023-09-30T08:37:01;25.58;;;11.85;;
67776;SDS011;54576;52.020;5.536;2023-09-30T08:39:27;26.10;;;11.85;;
67776;SDS011;54576;52.020;5.536;2023-09-30T08:41:54;33.25;;;12.85;;
67776;SDS011;54576;52.020;5.536;2023-09-30T08:44:21;29.77;;;12.88;;
67776;SDS011;54576;52.020;5.536;2023-09-30T08:46:47;27.17;;;11.80;;
67776;SDS011;54576;52.020;5.536;2023-09-30T08:49:14;30.15;;;12.38;;
67776;SDS011;54576;52.020;5.536;2023-09-30T08:51:40;34.53;;;11.38;;
67776;SDS011;54576;52.020;5.536;2023-09-30T08:54:07;22.58;;;11.13;;
67776;SDS011;54576;52.020;5.536;2023-09-30T08:56:33;24.40;;;11.45;;
67776;SDS011;54576;52.020;5.536;2023-09-30T08:59:00;23.05;;;12.18;;
67776;SDS011;54576;52.020;5.536;2023-09-30T09:01:26;32.15;;;11.90;;
67776;SDS011;54576;52.020;5.536;2023-09-30T09:03:53;26.92;;;12.60;;
67776;SDS011;54576;52.020;5.536;2023-09-30T09:06:23;27.40;;;12.68;;
67776;SDS011;54576;52.020;5.536;2023-09-30T09:08:49;28.95;;;11.85;;
67776;SDS011;54576;52.020;5.536;2023-09-30T09:11:16;31.85;;;13.52;;
67776;SDS011;54576;52.020;5.536;2023-09-30T09:13:53;29.10;;;13.18;;
67776;SDS011;54576;52.020;5.536;2023-09-30T09:16:24;23.70;;;12.15;;
67776;SDS011;54576;52.020;5.536;2023-09-30T09:18:50;32.78;;;13.80;;
67776;SDS011;54576;52.020;5.536;2023-09-30T09:21:17;25.23;;;13.60;;
67776;SDS011;54576;52.020;5.536;2023-09-30T09:23:48;26.73;;;12.55;;
67776;SDS011;54576;52.020;5.536;2023-09-30T09:26:25;33.22;;;12.95;;
67776;SDS011;54576;52.020;5.536;2023-09-30T09:28:56;29.60;;;13.25;;
67776;SDS011;54576;52.020;5.536;2023-09-30T09:31:22;24.80;;;11.43;;
67776;SDS011;54576;52.020;5.536;2023-09-30T09:33:49;29.80;;;11.40;;
67776;SDS011;54576;52.020;5.536;2023-09-30T09:36:15;35.03;;;12.07;;
67776;SDS011;54576;52.020;5.536;2023-09-30T09:38:45;24.88;;;11.52;;
67776;SDS011;54576;52.020;5.536;2023-09-30T09:41:12;21.63;;;9.77;;
67776;SDS011;54576;52.020;5.536;2023-09-30T09:43:38;24.38;;;10.18;;
67776;SDS011;54576;52.020;5.536;2023-09-30T09:46:07;22.93;;;10.37;;
67776;SDS011;54576;52.020;5.536;2023-09-30T09:48:36;24.55;;;9.85;;
67776;SDS011;54576;52.020;5.536;2023-09-30T09:51:03;26.13;;;10.15;;
67776;SDS011;54576;52.020;5.536;2023-09-30T09:53:35;23.08;;;9.40;;
67776;SDS011;54576;52.020;5.536;2023-09-30T09:56:04;22.55;;;9.48;;
67776;SDS011;54576;52.020;5.536;2023-09-30T09:58:35;31.23;;;9.30;;
67776;SDS011;54576;52.020;5.536;2023-09-30T10:01:03;24.90;;;8.80;;
67776;SDS011;54576;52.020;5.536;2023-09-30T10:03:31;26.90;;;10.02;;
67776;SDS011;54576;52.020;5.536;2023-09-30T10:06:00;22.27;;;9.68;;
67776;SDS011;54576;52.020;5.536;2023-09-30T10:08:33;22.67;;;8.73;;
67776;SDS011;54576;52.020;5.536;2023-09-30T10:11:01;17.38;;;7.47;;
67776;SDS011;54576;52.020;5.536;2023-09-30T10:16:46;18.77;;;8.25;;
67776;SDS011;54576;52.020;5.536;2023-09-30T10:19:07;22.85;;;8.00;;
67776;SDS011;54576;52.020;5.536;2023-09-30T10:21:33;30.05;;;7.82;;
67776;SDS011;54576;52.020;5.536;2023-09-30T10:24:45;18.38;;;6.97;;
67776;SDS011;54576;52.020;5.536;2023-09-30T10:26:46;22.83;;;7.30;;
67776;SDS011;54576;52.020;5.536;2023-09-30T10:29:12;16.42;;;6.10;;
67776;SDS011;54576;52.020;5.536;2023-09-30T10:31:49;19.67;;;6.85;;
67776;SDS011;54576;52.020;5.536;2023-09-30T10:34:19;19.27;;;7.47;;
67776;SDS011;54576;52.020;5.536;2023-09-30T10:36:46;19.88;;;6.80;;
67776;SDS011;54576;52.020;5.536;2023-09-30T10:39:13;22.33;;;6.95;;
67776;SDS011;54576;52.020;5.536;2023-09-30T10:46:53;20.48;;;6.07;;
67776;SDS011;54576;52.020;5.536;2023-09-30T10:51:50;14.63;;;5.28;;
67776;SDS011;54576;52.020;5.536;2023-09-30T10:54:26;21.58;;;6.40;;
67776;SDS011;54576;52.020;5.536;2023-09-30T10:56:52;17.08;;;5.35;;
67776;SDS011;54576;52.020;5.536;2023-09-30T10:59:19;20.23;;;5.63;;
67776;SDS011;54576;52.020;5.536;2023-09-30T11:01:45;14.52;;;4.57;;
67776;SDS011;54576;52.020;5.536;2023-09-30T11:04:14;13.85;;;4.25;;
67776;SDS011;54576;52.020;5.536;2023-09-30T11:06:41;16.77;;;4.40;;
67776;SDS011;54576;52.020;5.536;2023-09-30T11:09:07;13.05;;;4.43;;
67776;SDS011;54576;52.020;5.536;2023-09-30T11:11:40;19.55;;;4.90;;
67776;SDS011;54576;52.020;5.536;2023-09-30T11:14:20;14.35;;;4.68;;
67776;SDS011;54576;52.020;5.536;2023-09-30T11:16:46;19.38;;;5.40;;
67776;SDS011;54576;52.020;5.536;2023-09-30T11:19:13;10.75;;;3.97;;
67776;SDS011;54576;52.020;5.536;2023-09-30T11:21:43;14.48;;;4.57;;
67776;SDS011;54576;52.020;5.536;2023-09-30T11:24:10;13.65;;;4.20;;
67776;SDS011;54576;52.020;5.536;2023-09-30T11:26:36;18.15;;;4.60;;
67776;SDS011;54576;52.020;5.536;2023-09-30T11:31:36;9.70;;;3.55;;
67776;SDS011;54576;52.020;5.536;2023-09-30T11:34:03;14.23;;;4.05;;
67776;SDS011;54576;52.020;5.536;2023-09-30T11:36:29;18.15;;;4.47;;
67776;SDS011;54576;52.020;5.536;2023-09-30T11:38:58;9.68;;;3.83;;
67776;SDS011;54576;52.020;5.536;2023-09-30T11:41:34;16.40;;;4.78;;
67776;SDS011;54576;52.020;5.536;2023-09-30T11:44:02;9.57;;;3.42;;
67776;SDS011;54576;52.020;5.536;2023-09-30T11:46:53;14.45;;;4.20;;
67776;SDS011;54576;52.020;5.536;2023-09-30T11:51:56;10.18;;;3.92;;
67776;SDS011;54576;52.020;5.536;2023-09-30T11:54:28;12.30;;;4.35;;
67776;SDS011;54576;52.020;5.536;2023-09-30T11:56:54;17.42;;;4.30;;
67776;SDS011;54576;52.020;5.536;2023-09-30T11:59:20;15.18;;;4.15;;
67776;SDS011;54576;52.020;5.536;2023-09-30T12:01:47;15.73;;;4.10;;
67776;SDS011;54576;52.020;5.536;2023-09-30T12:04:16;21.75;;;4.80;;
67776;SDS011;54576;52.020;5.536;2023-09-30T12:06:44;15.02;;;3.80;;
67776;SDS011;54576;52.020;5.536;2023-09-30T12:09:10;15.82;;;4.70;;
67776;SDS011;54576;52.020;5.536;2023-09-30T12:11:40;16.30;;;3.78;;
67776;SDS011;54576;52.020;5.536;2023-09-30T12:14:09;12.55;;;3.78;;
67776;SDS011;54576;52.020;5.536;2023-09-30T12:16:35;11.02;;;3.75;;
67776;SDS011;54576;52.020;5.536;2023-09-30T12:19:01;13.82;;;3.92;;
67776;SDS011;54576;52.020;5.536;2023-09-30T12:21:27;12.77;;;3.95;;
67776;SDS011;54576;52.020;5.536;2023-09-30T12:23:53;16.63;;;4.88;;
67776;SDS011;54576;52.020;5.536;2023-09-30T12:26:20;12.50;;;4.55;;
67776;SDS011;54576;52.020;5.536;2023-09-30T12:28:46;17.17;;;5.13;;
67776;SDS011;54576;52.020;5.536;2023-09-30T12:31:13;12.57;;;4.28;;
67776;SDS011;54576;52.020;5.536;2023-09-30T12:33:40;12.00;;;3.42;;
67776;SDS011;54576;52.020;5.536;2023-09-30T12:36:06;15.40;;;3.60;;
67776;SDS011;54576;52.020;5.536;2023-09-30T12:38:32;14.88;;;4.00;;
67776;SDS011;54576;52.020;5.536;2023-09-30T12:40:58;16.50;;;4.25;;
67776;SDS011;54576;52.020;5.536;2023-09-30T12:43:25;20.85;;;4.82;;
67776;SDS011;54576;52.020;5.536;2023-09-30T12:45:51;16.83;;;4.75;;
67776;SDS011;54576;52.020;5.536;2023-09-30T12:48:17;15.55;;;4.22;;
67776;SDS011;54576;52.020;5.536;2023-09-30T12:50:44;17.25;;;4.85;;
67776;SDS011;54576;52.020;5.536;2023-09-30T12:53:10;11.88;;;3.92;;
67776;SDS011;54576;52.020;5.536;2023-09-30T12:55:36;13.02;;;4.40;;
67776;SDS011;54576;52.020;5.536;2023-09-30T12:58:02;11.45;;;3.67;;
67776;SDS011;54576;52.020;5.536;2023-09-30T13:00:31;13.10;;;4.57;;
67776;SDS011;54576;52.020;5.536;2023-09-30T13:02:58;12.93;;;4.13;;
67776;SDS011;54576;52.020;5.536;2023-09-30T13:05:24;17.00;;;4.38;;
67776;SDS011;54576;52.020;5.536;2023-09-30T13:07:50;11.98;;;4.22;;
67776;SDS011;54576;52.020;5.536;2023-09-30T13:10:17;19.88;;;4.13;;
67776;SDS011;54576;52.020;5.536;2023-09-30T13:12:44;14.10;;;4.10;;
67776;SDS011;54576;52.020;5.536;2023-09-30T13:15:10;11.45;;;4.43;;
67776;SDS011;54576;52.020;5.536;2023-09-30T13:17:36;15.23;;;3.97;;
67776;SDS011;54576;52.020;5.536;2023-09-30T13:20:02;19.35;;;4.07;;
67776;SDS011;54576;52.020;5.536;2023-09-30T13:22:30;16.00;;;4.80;;
67776;SDS011;54576;52.020;5.536;2023-09-30T13:24:57;10.50;;;3.97;;
67776;SDS011;54576;52.020;5.536;2023-09-30T13:27:23;10.23;;;4.30;;
67776;SDS011;54576;52.020;5.536;2023-09-30T13:29:49;16.65;;;4.50;;
67776;SDS011;54576;52.020;5.536;2023-09-30T13:32:15;21.35;;;4.40;;
67776;SDS011;54576;52.020;5.536;2023-09-30T13:34:43;13.95;;;4.63;;
67776;SDS011;54576;52.020;5.536;2023-09-30T13:37:09;19.90;;;4.65;;
67776;SDS011;54576;52.020;5.536;2023-09-30T13:39:35;15.10;;;5.22;;
67776;SDS011;54576;52.020;5.536;2023-09-30T13:42:03;14.15;;;4.97;;
67776;SDS011;54576;52.020;5.536;2023-09-30T13:44:29;14.07;;;4.97;;
67776;SDS011;54576;52.020;5.536;2023-09-30T13:46:55;15.02;;;5.10;;
67776;SDS011;54576;52.020;5.536;2023-09-30T13:49:21;10.93;;;4.80;;
67776;SDS011;54576;52.020;5.536;2023-09-30T13:51:47;14.27;;;5.20;;
67776;SDS011;54576;52.020;5.536;2023-09-30T13:54:13;12.90;;;5.03;;
67776;SDS011;54576;52.020;5.536;2023-09-30T13:56:40;16.63;;;4.82;;
67776;SDS011;54576;52.020;5.536;2023-09-30T13:59:06;16.77;;;5.70;;
67776;SDS011;54576;52.020;5.536;2023-09-30T14:01:32;13.15;;;5.40;;
67776;SDS011;54576;52.020;5.536;2023-09-30T14:03:58;14.60;;;5.43;;
67776;SDS011;54576;52.020;5.536;2023-09-30T14:06:24;16.40;;;5.72;;
67776;SDS011;54576;52.020;5.536;2023-09-30T14:08:50;21.70;;;6.75;;
67776;SDS011;54576;52.020;5.536;2023-09-30T14:11:18;14.13;;;5.85;;
67776;SDS011;54576;52.020;5.536;2023-09-30T14:13:44;16.75;;;5.47;;
67776;SDS011;54576;52.020;5.536;2023-09-30T14:16:10;17.40;;;6.38;;
67776;SDS011;54576;52.020;5.536;2023-09-30T14:18:36;13.48;;;6.75;;
67776;SDS011;54576;52.020;5.536;2023-09-30T14:21:04;16.45;;;5.00;;
67776;SDS011;54576;52.020;5.536;2023-09-30T14:23:30;15.38;;;6.10;;
67776;SDS011;54576;52.020;5.536;2023-09-30T14:25:56;14.68;;;5.88;;
67776;SDS011;54576;52.020;5.536;2023-09-30T14:28:22;17.70;;;5.82;;
67776;SDS011;54576;52.020;5.536;2023-09-30T14:30:48;19.10;;;5.78;;
67776;SDS011;54576;52.020;5.536;2023-09-30T14:33:18;16.48;;;6.22;;
67776;SDS011;54576;52.020;5.536;2023-09-30T14:35:47;19.88;;;6.28;;
67776;SDS011;54576;52.020;5.536;2023-09-30T14:38:13;15.55;;;5.97;;
67776;SDS011;54576;52.020;5.536;2023-09-30T14:40:39;14.68;;;5.88;;
67776;SDS011;54576;52.020;5.536;2023-09-30T14:43:08;16.67;;;5.30;;
67776;SDS011;54576;52.020;5.536;2023-09-30T14:45:38;23.13;;;5.88;;
67776;SDS011;54576;52.020;5.536;2023-09-30T14:48:08;19.80;;;6.60;;
67776;SDS011;54576;52.020;5.536;2023-09-30T14:50:34;14.80;;;5.75;;
67776;SDS011;54576;52.020;5.536;2023-09-30T14:53:02;34.25;;;7.88;;
67776;SDS011;54576;52.020;5.536;2023-09-30T14:55:28;16.33;;;6.35;;
67776;SDS011;54576;52.020;5.536;2023-09-30T14:57:54;18.00;;;6.63;;
67776;SDS011;54576;52.020;5.536;2023-09-30T15:00:20;17.10;;;5.80;;
67776;SDS011;54576;52.020;5.536;2023-09-30T15:05:15;15.93;;;5.55;;
67776;SDS011;54576;52.020;5.536;2023-09-30T15:07:42;19.88;;;5.90;;
67776;SDS011;54576;52.020;5.536;2023-09-30T15:10:08;19.65;;;5.53;;
67776;SDS011;54576;52.020;5.536;2023-09-30T15:12:34;14.98;;;5.85;;
67776;SDS011;54576;52.020;5.536;2023-09-30T15:15:00;16.73;;;5.90;;
67776;SDS011;54576;52.020;5.536;2023-09-30T15:17:28;18.20;;;6.30;;
67776;SDS011;54576;52.020;5.536;2023-09-30T15:19:55;20.25;;;5.80;;
67776;SDS011;54576;52.020;5.536;2023-09-30T15:22:21;17.73;;;5.88;;
67776;SDS011;54576;52.020;5.536;2023-09-30T15:24:47;17.67;;;6.43;;
67776;SDS011;54576;52.020;5.536;2023-09-30T15:27:14;17.42;;;6.25;;
67776;SDS011;54576;52.020;5.536;2023-09-30T15:29:40;17.05;;;5.97;;
67776;SDS011;54576;52.020;5.536;2023-09-30T15:32:06;15.90;;;6.38;;
67776;SDS011;54576;52.020;5.536;2023-09-30T15:34:35;18.27;;;6.43;;
67776;SDS011;54576;52.020;5.536;2023-09-30T15:37:05;29.08;;;7.38;;
67776;SDS011;54576;52.020;5.536;2023-09-30T15:39:41;19.33;;;6.10;;
67776;SDS011;54576;52.020;5.536;2023-09-30T15:42:07;13.07;;;5.82;;
67776;SDS011;54576;52.020;5.536;2023-09-30T15:44:40;11.45;;;5.53;;
67776;SDS011;54576;52.020;5.536;2023-09-30T15:47:06;15.43;;;6.40;;
67776;SDS011;54576;52.020;5.536;2023-09-30T15:49:33;15.55;;;6.72;;
67776;SDS011;54576;52.020;5.536;2023-09-30T15:51:59;34.95;;;8.27;;
67776;SDS011;54576;52.020;5.536;2023-09-30T15:54:25;23.02;;;6.03;;
67776;SDS011;54576;52.020;5.536;2023-09-30T15:56:51;16.27;;;6.45;;
67776;SDS011;54576;52.020;5.536;2023-09-30T15:59:17;12.95;;;5.57;;
67776;SDS011;54576;52.020;5.536;2023-09-30T16:01:44;19.25;;;6.45;;
67776;SDS011;54576;52.020;5.536;2023-09-30T16:04:10;21.10;;;6.15;;
67776;SDS011;54576;52.020;5.536;2023-09-30T16:06:39;21.02;;;6.32;;
67776;SDS011;54576;52.020;5.536;2023-09-30T16:09:05;12.43;;;5.85;;
67776;SDS011;54576;52.020;5.536;2023-09-30T16:11:31;13.93;;;5.85;;
67776;SDS011;54576;52.020;5.536;2023-09-30T16:13:57;14.55;;;5.72;;
67776;SDS011;54576;52.020;5.536;2023-09-30T16:16:23;15.05;;;5.93;;
67776;SDS011;54576;52.020;5.536;2023-09-30T16:18:49;12.75;;;5.60;;
67776;SDS011;54576;52.020;5.536;2023-09-30T16:21:15;21.10;;;7.22;;
67776;SDS011;54576;52.020;5.536;2023-09-30T16:23:41;21.73;;;6.97;;
67776;SDS011;54576;52.020;5.536;2023-09-30T16:26:07;23.00;;;7.30;;
67776;SDS011;54576;52.020;5.536;2023-09-30T16:28:33;19.77;;;6.75;;
67776;SDS011;54576;52.020;5.536;2023-09-30T16:30:59;17.48;;;5.82;;
67776;SDS011;54576;52.020;5.536;2023-09-30T16:33:25;11.80;;;6.13;;
67776;SDS011;54576;52.020;5.536;2023-09-30T16:35:52;21.13;;;7.10;;
67776;SDS011;54576;52.020;5.536;2023-09-30T16:38:21;14.70;;;6.60;;
67776;SDS011;54576;52.020;5.536;2023-09-30T16:40:49;17.60;;;6.72;;
67776;SDS011;54576;52.020;5.536;2023-09-30T16:43:15;23.85;;;7.03;;
67776;SDS011;54576;52.020;5.536;2023-09-30T16:45:42;20.27;;;6.38;;
67776;SDS011;54576;52.020;5.536;2023-09-30T16:48:08;16.02;;;6.03;;
67776;SDS011;54576;52.020;5.536;2023-09-30T16:53:03;18.20;;;5.38;;
67776;SDS011;54576;52.020;5.536;2023-09-30T16:55:29;14.30;;;5.22;;
67776;SDS011;54576;52.020;5.536;2023-09-30T16:57:55;22.80;;;6.13;;
67776;SDS011;54576;52.020;5.536;2023-09-30T17:00:21;15.80;;;6.00;;
67776;SDS011;54576;52.020;5.536;2023-09-30T17:02:49;9.95;;;4.95;;
67776;SDS011;54576;52.020;5.536;2023-09-30T17:05:15;13.02;;;5.22;;
67776;SDS011;54576;52.020;5.536;2023-09-30T17:07:41;20.30;;;5.95;;
67776;SDS011;54576;52.020;5.536;2023-09-30T17:10:07;26.80;;;5.70;;
67776;SDS011;54576;52.020;5.536;2023-09-30T17:12:37;14.73;;;5.35;;
67776;SDS011;54576;52.020;5.536;2023-09-30T17:15:03;16.60;;;5.47;;
67776;SDS011;54576;52.020;5.536;2023-09-30T17:17:29;15.63;;;5.97;;
67776;SDS011;54576;52.020;5.536;2023-09-30T17:19:55;12.38;;;5.20;;
67776;SDS011;54576;52.020;5.536;2023-09-30T17:22:21;12.82;;;5.18;;
67776;SDS011;54576;52.020;5.536;2023-09-30T17:24:47;11.18;;;5.88;;
67776;SDS011;54576;52.020;5.536;2023-09-30T17:27:14;9.52;;;5.25;;
67776;SDS011;54576;52.020;5.536;2023-09-30T17:29:46;13.52;;;6.68;;
67776;SDS011;54576;52.020;5.536;2023-09-30T17:32:12;11.18;;;5.88;;
67776;SDS011;54576;52.020;5.536;2023-09-30T17:37:07;20.55;;;5.40;;
67776;SDS011;54576;52.020;5.536;2023-09-30T17:39:33;19.63;;;5.35;;
67776;SDS011;54576;52.020;5.536;2023-09-30T17:41:59;40.70;;;15.18;;
67776;SDS011;54576;52.020;5.536;2023-09-30T17:44:25;19.02;;;7.05;;
67776;SDS011;54576;52.020;5.536;2023-09-30T17:46:51;10.98;;;5.28;;
67776;SDS011;54576;52.020;5.536;2023-09-30T17:49:17;17.05;;;5.18;;
67776;SDS011;54576;52.020;5.536;2023-09-30T17:51:43;12.98;;;5.63;;
67776;SDS011;54576;52.020;5.536;2023-09-30T17:54:12;13.88;;;5.22;;
67776;SDS011;54576;52.020;5.536;2023-09-30T17:56:38;15.65;;;5.22;;
67776;SDS011;54576;52.020;5.536;2023-09-30T17:59:07;18.70;;;5.38;;
67776;SDS011;54576;52.020;5.536;2023-09-30T18:01:34;12.23;;;4.72;;
67776;SDS011;54576;52.020;5.536;2023-09-30T18:04:01;13.57;;;4.95;;
67776;SDS011;54576;52.020;5.536;2023-09-30T18:06:28;11.57;;;5.28;;
67776;SDS011;54576;52.020;5.536;2023-09-30T18:08:54;13.93;;;5.35;;
67776;SDS011;54576;52.020;5.536;2023-09-30T18:11:20;15.38;;;4.60;;
67776;SDS011;54576;52.020;5.536;2023-09-30T18:13:46;11.30;;;4.30;;
67776;SDS011;54576;52.020;5.536;2023-09-30T18:16:13;12.98;;;4.93;;
67776;SDS011;54576;52.020;5.536;2023-09-30T18:18:39;11.88;;;4.60;;
67776;SDS011;54576;52.020;5.536;2023-09-30T18:21:07;15.20;;;5.63;;
67776;SDS011;54576;52.020;5.536;2023-09-30T18:23:36;10.95;;;5.75;;
67776;SDS011;54576;52.020;5.536;2023-09-30T18:26:03;19.67;;;7.45;;
67776;SDS011;54576;52.020;5.536;2023-09-30T18:28:29;17.60;;;6.32;;
67776;SDS011;54576;52.020;5.536;2023-09-30T18:30:56;16.33;;;6.13;;
67776;SDS011;54576;52.020;5.536;2023-09-30T18:33:22;14.38;;;5.40;;
67776;SDS011;54576;52.020;5.536;2023-09-30T18:35:48;14.25;;;5.10;;
67776;SDS011;54576;52.020;5.536;2023-09-30T18:38:15;20.10;;;5.45;;
67776;SDS011;54576;52.020;5.536;2023-09-30T18:40:41;15.77;;;5.25;;
67776;SDS011;54576;52.020;5.536;2023-09-30T18:43:11;13.48;;;4.68;;
67776;SDS011;54576;52.020;5.536;2023-09-30T18:45:41;16.27;;;5.07;;
67776;SDS011;54576;52.020;5.536;2023-09-30T18:48:07;9.52;;;4.40;;
67776;SDS011;54576;52.020;5.536;2023-09-30T18:53:08;14.30;;;4.30;;
67776;SDS011;54576;52.020;5.536;2023-09-30T18:55:35;12.27;;;4.80;;
67776;SDS011;54576;52.020;5.536;2023-09-30T18:58:02;17.55;;;5.22;;
67776;SDS011;54576;52.020;5.536;2023-09-30T19:00:28;22.42;;;5.53;;
67776;SDS011;54576;52.020;5.536;2023-09-30T19:02:56;13.15;;;4.88;;
67776;SDS011;54576;52.020;5.536;2023-09-30T19:05:23;14.65;;;4.50;;
67776;SDS011;54576;52.020;5.536;2023-09-30T19:07:49;13.50;;;4.78;;
67776;SDS011;54576;52.020;5.536;2023-09-30T19:10:15;17.85;;;5.03;;
67776;SDS011;54576;52.020;5.536;2023-09-30T19:12:41;10.60;;;4.43;;
67776;SDS011;54576;52.020;5.536;2023-09-30T19:15:08;9.85;;;4.70;;
67776;SDS011;54576;52.020;5.536;2023-09-30T19:17:34;15.77;;;4.78;;
67776;SDS011;54576;52.020;5.536;2023-09-30T19:20:01;12.38;;;4.20;;
67776;SDS011;54576;52.020;5.536;2023-09-30T19:22:27;13.15;;;4.15;;
67776;SDS011;54576;52.020;5.536;2023-09-30T19:24:53;16.35;;;4.60;;
67776;SDS011;54576;52.020;5.536;2023-09-30T19:27:19;13.77;;;4.65;;
67776;SDS011;54576;52.020;5.536;2023-09-30T19:29:46;21.23;;;5.75;;
67776;SDS011;54576;52.020;5.536;2023-09-30T19:32:12;19.35;;;4.97;;
67776;SDS011;54576;52.020;5.536;2023-09-30T19:34:39;16.38;;;5.70;;
67776;SDS011;54576;52.020;5.536;2023-09-30T19:37:05;13.05;;;5.65;;
67776;SDS011;54576;52.020;5.536;2023-09-30T19:39:31;21.35;;;5.78;;
67776;SDS011;54576;52.020;5.536;2023-09-30T19:41:57;10.48;;;5.10;;
67776;SDS011;54576;52.020;5.536;2023-09-30T19:44:23;14.27;;;6.22;;
67776;SDS011;54576;52.020;5.536;2023-09-30T19:46:50;20.90;;;6.28;;
67776;SDS011;54576;52.020;5.536;2023-09-30T19:49:16;15.77;;;6.10;;
67776;SDS011;54576;52.020;5.536;2023-09-30T19:51:42;17.13;;;6.10;;
67776;SDS011;54576;52.020;5.536;2023-09-30T19:54:08;14.38;;;6.00;;
67776;SDS011;54576;52.020;5.536;2023-09-30T19:56:35;13.77;;;6.35;;
67776;SDS011;54576;52.020;5.536;2023-09-30T19:59:01;13.88;;;5.40;;
67776;SDS011;54576;52.020;5.536;2023-09-30T20:01:28;15.68;;;6.18;;
67776;SDS011;54576;52.020;5.536;2023-09-30T20:03:54;16.13;;;6.00;;
67776;SDS011;54576;52.020;5.536;2023-09-30T20:06:22;13.48;;;6.15;;
67776;SDS011;54576;52.020;5.536;2023-09-30T20:08:49;17.63;;;6.13;;
67776;SDS011;54576;52.020;5.536;2023-09-30T20:11:24;17.25;;;6.35;;
67776;SDS011;54576;52.020;5.536;2023-09-30T20:13:57;23.02;;;6.38;;
67776;SDS011;54576;52.020;5.536;2023-09-30T20:16:24;16.95;;;5.55;;
67776;SDS011;54576;52.020;5.536;2023-09-30T20:18:50;13.65;;;6.10;;
67776;SDS011;54576;52.020;5.536;2023-09-30T20:21:16;23.65;;;7.28;;
67776;SDS011;54576;52.020;5.536;2023-09-30T20:23:42;16.63;;;6.50;;
67776;SDS011;54576;52.020;5.536;2023-09-30T20:26:09;15.45;;;5.70;;
67776;SDS011;54576;52.020;5.536;2023-09-30T20:28:40;14.32;;;5.57;;
67776;SDS011;54576;52.020;5.536;2023-09-30T20:31:07;17.08;;;5.82;;
67776;SDS011;54576;52.020;5.536;2023-09-30T20:33:34;13.32;;;5.32;;
67776;SDS011;54576;52.020;5.536;2023-09-30T20:36:00;19.83;;;6.30;;
67776;SDS011;54576;52.020;5.536;2023-09-30T20:38:27;22.17;;;6.88;;
67776;SDS011;54576;52.020;5.536;2023-09-30T20:40:53;16.45;;;5.97;;
67776;SDS011;54576;52.020;5.536;2023-09-30T20:43:19;18.88;;;6.68;;
67776;SDS011;54576;52.020;5.536;2023-09-30T20:45:45;12.95;;;5.95;;
67776;SDS011;54576;52.020;5.536;2023-09-30T20:48:11;13.18;;;6.07;;
67776;SDS011;54576;52.020;5.536;2023-09-30T20:50:37;23.55;;;7.15;;
67776;SDS011;54576;52.020;5.536;2023-09-30T20:53:03;12.80;;;7.22;;
67776;SDS011;54576;52.020;5.536;2023-09-30T20:55:33;16.65;;;7.13;;
67776;SDS011;54576;52.020;5.536;2023-09-30T20:57:59;18.38;;;7.57;;
67776;SDS011;54576;52.020;5.536;2023-09-30T21:00:26;21.98;;;7.80;;
67776;SDS011;54576;52.020;5.536;2023-09-30T21:02:52;16.23;;;8.02;;
67776;SDS011;54576;52.020;5.536;2023-09-30T21:05:19;19.48;;;6.82;;
67776;SDS011;54576;52.020;5.536;2023-09-30T21:07:45;15.13;;;6.80;;
67776;SDS011;54576;52.020;5.536;2023-09-30T21:10:12;20.20;;;7.57;;
67776;SDS011;54576;52.020;5.536;2023-09-30T21:12:38;13.45;;;6.45;;
67776;SDS011;54576;52.020;5.536;2023-09-30T21:15:04;18.38;;;7.03;;
67776;SDS011;54576;52.020;5.536;2023-09-30T21:17:31;17.27;;;7.55;;
67776;SDS011;54576;52.020;5.536;2023-09-30T21:19:57;16.83;;;6.90;;
67776;SDS011;54576;52.020;5.536;2023-09-30T21:22:23;16.17;;;8.20;;
67776;SDS011;54576;52.020;5.536;2023-09-30T21:24:49;17.73;;;7.50;;
67776;SDS011;54576;52.020;5.536;2023-09-30T21:27:15;16.20;;;7.47;;
67776;SDS011;54576;52.020;5.536;2023-09-30T21:29:41;15.90;;;7.00;;
67776;SDS011;54576;52.020;5.536;2023-09-30T21:32:07;15.30;;;7.45;;
67776;SDS011;54576;52.020;5.536;2023-09-30T21:34:34;15.65;;;7.78;;
67776;SDS011;54576;52.020;5.536;2023-09-30T21:37:00;17.88;;;7.65;;
67776;SDS011;54576;52.020;5.536;2023-09-30T21:39:26;19.95;;;8.25;;
67776;SDS011;54576;52.020;5.536;2023-09-30T21:41:52;15.05;;;7.82;;
67776;SDS011;54576;52.020;5.536;2023-09-30T21:44:18;13.80;;;7.90;;
67776;SDS011;54576;52.020;5.536;2023-09-30T21:46:44;17.75;;;7.28;;
67776;SDS011;54576;52.020;5.536;2023-09-30T21:49:11;16.90;;;8.60;;
67776;SDS011;54576;52.020;5.536;2023-09-30T21:51:37;13.57;;;8.52;;
67776;SDS011;54576;52.020;5.536;2023-09-30T21:54:03;24.65;;;8.38;;
67776;SDS011;54576;52.020;5.536;2023-09-30T21:56:29;15.65;;;7.95;;
67776;SDS011;54576;52.020;5.536;2023-09-30T21:58:55;17.38;;;8.95;;
67776;SDS011;54576;52.020;5.536;2023-09-30T22:01:21;25.95;;;8.82;;
67776;SDS011;54576;52.020;5.536;2023-09-30T22:03:47;17.35;;;8.20;;
67776;SDS011;54576;52.020;5.536;2023-09-30T22:06:19;17.65;;;8.95;;
67776;SDS011;54576;52.020;5.536;2023-09-30T22:08:45;16.70;;;9.20;;
67776;SDS011;54576;52.020;5.536;2023-09-30T22:11:11;18.35;;;8.75;;
67776;SDS011;54576;52.020;5.536;2023-09-30T22:13:38;17.98;;;8.50;;
67776;SDS011;54576;52.020;5.536;2023-09-30T22:16:04;21.45;;;8.07;;
67776;SDS011;54576;52.020;5.536;2023-09-30T22:18:31;14.88;;;8.57;;